Boylston, Massachusetts
Current Conditions -  °F | °C
As of 2:52 AM on Tuesday 27 Jan 2015 (Local Time) from KFIT Reporting Station
Haze Haze  
Wind Chill: -1°   Ceiling: 400
Heat Index: 14°   Visibility: 0.5mi
Dew Point:   Wind: 14mph
Humidity: 77%   Direction: 360°N
Pressure: 29.77"   Gusts: 25mph
Location:  42.39°N, 71.7°W
Report Text: KFIT 270752Z AUTO 36012G22KT 1/2SM HZ VV004 M10/M13 A2977 RMK AO2 SNEMM SLP087 P0003 T11001133 PWINO FZRANO $
Loading
Personal Weather Stations






























Interactive Weather Map New forecast layout! Learn more

10-Day Weather Forecast

Advertisements
Track Severe Weather on mobile